Eagle County Regional Airport Eagle US
ICAO: KEGE
IATA: EGE
Category: Medium
Scheduled Services: Yes

Elevation: 6548 ft
TransAlt. 18000 ft.

Airport Communications:
ATIS:135.575
AWOS 3:135.575
DENVER CNTR:128.65
CTAF:119.8
GND/CLNC DEL:121.8
EAGLES NEST:41.75
DENVER RDO:122.2
TWR:119.8

KEGE Zoom In..

If you have problems with the map follow the link
https://www.worldairports.se/pages/airport.php?
ICAO=KEGE

Runways:

(A) RW 07 length 9000 ft width 150 ft
LOC 110.10 / hdg 69

(B) RW 25 length 9000 ft width 150 ft
LOC 110.10 / hdg 249

Location; KEGE
Day. 05 / Time. 21.56 Zulu
* Altimeter: 30.12
* Temperature: 04° c. 39.2°f.
* Wind from: 300° Speed 03 kn.
Dewpoint: -01° c.
Visibility: 10 Statute Miles.
Clouds: Overcast 6500 ft.

KEGE 052156Z 30003KT 10SM OVC065 04/M01 A3012 RMK AO2 SLP223 T00391006 PNO $


Wind From 300°
Speed 03 kn.

 
 
jpsmedia worldairports.se 2019   terms of use